sensor_id;sensor_type;location;lat;lon;timestamp;P1;durP1;ratioP1;P2;durP2;ratioP2
38113;SDS011;23926;53.222;6.354;2022-08-23T00:01:53;22.52;;;14.48;;
38113;SDS011;23926;53.222;6.354;2022-08-23T00:04:25;20.42;;;14.93;;
38113;SDS011;23926;53.222;6.354;2022-08-23T00:06:53;18.83;;;13.93;;
38113;SDS011;23926;53.222;6.354;2022-08-23T00:09:20;19.35;;;13.55;;
38113;SDS011;23926;53.222;6.354;2022-08-23T00:11:48;25.13;;;15.45;;
38113;SDS011;23926;53.222;6.354;2022-08-23T00:14:21;15.90;;;13.70;;
38113;SDS011;23926;53.222;6.354;2022-08-23T00:16:51;21.50;;;15.55;;
38113;SDS011;23926;53.222;6.354;2022-08-23T00:19:18;24.88;;;17.27;;
38113;SDS011;23926;53.222;6.354;2022-08-23T00:21:44;26.63;;;16.92;;
38113;SDS011;23926;53.222;6.354;2022-08-23T00:24:11;24.70;;;17.17;;
38113;SDS011;23926;53.222;6.354;2022-08-23T00:26:51;23.52;;;16.98;;
38113;SDS011;23926;53.222;6.354;2022-08-23T00:29:16;26.27;;;18.38;;
38113;SDS011;23926;53.222;6.354;2022-08-23T00:31:42;24.25;;;17.50;;
38113;SDS011;23926;53.222;6.354;2022-08-23T00:34:08;19.92;;;14.75;;
38113;SDS011;23926;53.222;6.354;2022-08-23T00:36:34;19.08;;;14.63;;
38113;SDS011;23926;53.222;6.354;2022-08-23T00:38:59;21.40;;;15.73;;
38113;SDS011;23926;53.222;6.354;2022-08-23T00:41:25;19.65;;;14.75;;
38113;SDS011;23926;53.222;6.354;2022-08-23T00:43:52;23.95;;;15.52;;
38113;SDS011;23926;53.222;6.354;2022-08-23T00:46:42;20.48;;;15.93;;
38113;SDS011;23926;53.222;6.354;2022-08-23T00:49:30;21.60;;;16.85;;
38113;SDS011;23926;53.222;6.354;2022-08-23T00:52:00;19.73;;;13.73;;
38113;SDS011;23926;53.222;6.354;2022-08-23T00:54:31;12.35;;;7.25;;
38113;SDS011;23926;53.222;6.354;2022-08-23T00:56:59;5.78;;;5.18;;
38113;SDS011;23926;53.222;6.354;2022-08-23T00:59:26;4.07;;;3.70;;
38113;SDS011;23926;53.222;6.354;2022-08-23T01:01:52;3.60;;;3.30;;
38113;SDS011;23926;53.222;6.354;2022-08-23T01:04:17;4.97;;;4.13;;
38113;SDS011;23926;53.222;6.354;2022-08-23T01:06:47;6.07;;;4.35;;
38113;SDS011;23926;53.222;6.354;2022-08-23T01:09:16;4.32;;;3.83;;
38113;SDS011;23926;53.222;6.354;2022-08-23T01:14:13;4.38;;;3.75;;
38113;SDS011;23926;53.222;6.354;2022-08-23T01:16:43;4.50;;;2.40;;
38113;SDS011;23926;53.222;6.354;2022-08-23T01:19:22;2.83;;;2.63;;
38113;SDS011;23926;53.222;6.354;2022-08-23T01:21:54;3.72;;;3.42;;
38113;SDS011;23926;53.222;6.354;2022-08-23T01:24:25;7.10;;;5.23;;
38113;SDS011;23926;53.222;6.354;2022-08-23T01:26:51;6.93;;;4.50;;
38113;SDS011;23926;53.222;6.354;2022-08-23T01:29:16;5.18;;;4.18;;
38113;SDS011;23926;53.222;6.354;2022-08-23T01:31:42;7.30;;;4.50;;
38113;SDS011;23926;53.222;6.354;2022-08-23T01:34:09;7.00;;;5.50;;
38113;SDS011;23926;53.222;6.354;2022-08-23T01:36:36;11.85;;;8.20;;
38113;SDS011;23926;53.222;6.354;2022-08-23T01:39:03;14.10;;;9.50;;
38113;SDS011;23926;53.222;6.354;2022-08-23T01:41:29;11.57;;;9.23;;
38113;SDS011;23926;53.222;6.354;2022-08-23T01:43:55;10.77;;;9.05;;
38113;SDS011;23926;53.222;6.354;2022-08-23T01:46:21;10.45;;;8.43;;
38113;SDS011;23926;53.222;6.354;2022-08-23T01:48:49;11.18;;;8.73;;
38113;SDS011;23926;53.222;6.354;2022-08-23T01:51:15;9.75;;;8.52;;
38113;SDS011;23926;53.222;6.354;2022-08-23T01:53:43;12.10;;;9.70;;
38113;SDS011;23926;53.222;6.354;2022-08-23T01:56:10;14.88;;;11.20;;
38113;SDS011;23926;53.222;6.354;2022-08-23T01:58:36;14.55;;;11.68;;
38113;SDS011;23926;53.222;6.354;2022-08-23T02:01:02;13.23;;;11.48;;
38113;SDS011;23926;53.222;6.354;2022-08-23T02:03:29;13.27;;;10.70;;
38113;SDS011;23926;53.222;6.354;2022-08-23T02:05:55;11.77;;;9.20;;
38113;SDS011;23926;53.222;6.354;2022-08-23T02:08:21;10.02;;;8.82;;
38113;SDS011;23926;53.222;6.354;2022-08-23T02:11:10;9.05;;;6.82;;
38113;SDS011;23926;53.222;6.354;2022-08-23T02:13:39;8.30;;;7.15;;
38113;SDS011;23926;53.222;6.354;2022-08-23T02:16:05;7.53;;;5.70;;
38113;SDS011;23926;53.222;6.354;2022-08-23T02:18:31;14.07;;;9.18;;
38113;SDS011;23926;53.222;6.354;2022-08-23T02:20:57;12.90;;;10.00;;
38113;SDS011;23926;53.222;6.354;2022-08-23T02:23:22;12.25;;;10.18;;
38113;SDS011;23926;53.222;6.354;2022-08-23T02:25:49;14.70;;;10.98;;
38113;SDS011;23926;53.222;6.354;2022-08-23T02:28:16;13.55;;;9.52;;
38113;SDS011;23926;53.222;6.354;2022-08-23T02:30:43;11.35;;;9.73;;
38113;SDS011;23926;53.222;6.354;2022-08-23T02:33:09;7.68;;;6.43;;
38113;SDS011;23926;53.222;6.354;2022-08-23T02:35:35;9.30;;;6.57;;
38113;SDS011;23926;53.222;6.354;2022-08-23T02:38:04;13.00;;;7.85;;
38113;SDS011;23926;53.222;6.354;2022-08-23T02:40:31;13.05;;;10.27;;
38113;SDS011;23926;53.222;6.354;2022-08-23T02:42:57;8.65;;;6.18;;
38113;SDS011;23926;53.222;6.354;2022-08-23T02:45:24;5.13;;;4.60;;
38113;SDS011;23926;53.222;6.354;2022-08-23T02:47:50;5.13;;;4.63;;
38113;SDS011;23926;53.222;6.354;2022-08-23T02:50:17;6.85;;;6.13;;
38113;SDS011;23926;53.222;6.354;2022-08-23T02:52:43;10.27;;;7.28;;
38113;SDS011;23926;53.222;6.354;2022-08-23T02:55:09;7.25;;;6.22;;
38113;SDS011;23926;53.222;6.354;2022-08-23T02:57:35;4.65;;;4.25;;
38113;SDS011;23926;53.222;6.354;2022-08-23T03:00:00;6.07;;;5.05;;
38113;SDS011;23926;53.222;6.354;2022-08-23T03:02:26;6.60;;;5.82;;
38113;SDS011;23926;53.222;6.354;2022-08-23T03:04:52;6.25;;;5.22;;
38113;SDS011;23926;53.222;6.354;2022-08-23T03:07:17;6.57;;;5.97;;
38113;SDS011;23926;53.222;6.354;2022-08-23T03:09:43;6.35;;;5.75;;
38113;SDS011;23926;53.222;6.354;2022-08-23T03:12:08;5.40;;;4.90;;
38113;SDS011;23926;53.222;6.354;2022-08-23T03:14:34;3.80;;;3.50;;
38113;SDS011;23926;53.222;6.354;2022-08-23T03:17:01;4.22;;;3.83;;
38113;SDS011;23926;53.222;6.354;2022-08-23T03:19:28;4.72;;;2.70;;
38113;SDS011;23926;53.222;6.354;2022-08-23T03:21:54;2.28;;;2.17;;
38113;SDS011;23926;53.222;6.354;2022-08-23T03:24:19;4.47;;;3.28;;
38113;SDS011;23926;53.222;6.354;2022-08-23T03:26:45;4.63;;;4.03;;
38113;SDS011;23926;53.222;6.354;2022-08-23T03:29:10;5.85;;;5.20;;
38113;SDS011;23926;53.222;6.354;2022-08-23T03:31:37;4.55;;;4.10;;
38113;SDS011;23926;53.222;6.354;2022-08-23T03:34:03;5.05;;;4.63;;
38113;SDS011;23926;53.222;6.354;2022-08-23T03:36:29;5.03;;;4.60;;
38113;SDS011;23926;53.222;6.354;2022-08-23T03:38:55;5.00;;;4.53;;
38113;SDS011;23926;53.222;6.354;2022-08-23T03:41:21;6.95;;;6.25;;
38113;SDS011;23926;53.222;6.354;2022-08-23T03:43:46;15.90;;;6.60;;
38113;SDS011;23926;53.222;6.354;2022-08-23T03:46:13;5.95;;;5.00;;
38113;SDS011;23926;53.222;6.354;2022-08-23T03:48:47;6.90;;;4.70;;
38113;SDS011;23926;53.222;6.354;2022-08-23T03:51:17;5.82;;;4.43;;
38113;SDS011;23926;53.222;6.354;2022-08-23T03:53:44;4.80;;;4.25;;
38113;SDS011;23926;53.222;6.354;2022-08-23T03:56:19;6.55;;;4.95;;
38113;SDS011;23926;53.222;6.354;2022-08-23T03:58:45;6.97;;;5.00;;
38113;SDS011;23926;53.222;6.354;2022-08-23T04:01:10;5.60;;;4.25;;
38113;SDS011;23926;53.222;6.354;2022-08-23T04:03:36;5.57;;;5.07;;
38113;SDS011;23926;53.222;6.354;2022-08-23T04:06:01;5.20;;;4.70;;
38113;SDS011;23926;53.222;6.354;2022-08-23T04:08:27;5.88;;;4.97;;
38113;SDS011;23926;53.222;6.354;2022-08-23T04:10:52;7.65;;;5.43;;
38113;SDS011;23926;53.222;6.354;2022-08-23T04:13:17;6.07;;;5.43;;
38113;SDS011;23926;53.222;6.354;2022-08-23T04:15:43;5.70;;;5.20;;
38113;SDS011;23926;53.222;6.354;2022-08-23T04:18:08;5.20;;;4.70;;
38113;SDS011;23926;53.222;6.354;2022-08-23T04:20:34;8.95;;;7.43;;
38113;SDS011;23926;53.222;6.354;2022-08-23T04:23:00;14.20;;;10.38;;
38113;SDS011;23926;53.222;6.354;2022-08-23T04:25:26;13.00;;;9.93;;
38113;SDS011;23926;53.222;6.354;2022-08-23T04:27:51;14.55;;;11.00;;
38113;SDS011;23926;53.222;6.354;2022-08-23T04:30:17;19.90;;;13.65;;
38113;SDS011;23926;53.222;6.354;2022-08-23T04:32:44;18.98;;;14.07;;
38113;SDS011;23926;53.222;6.354;2022-08-23T04:35:09;17.00;;;14.50;;
38113;SDS011;23926;53.222;6.354;2022-08-23T04:37:35;19.83;;;13.95;;
38113;SDS011;23926;53.222;6.354;2022-08-23T04:40:01;19.83;;;14.60;;
38113;SDS011;23926;53.222;6.354;2022-08-23T04:42:46;16.10;;;13.80;;
38113;SDS011;23926;53.222;6.354;2022-08-23T04:45:12;18.30;;;14.95;;
38113;SDS011;23926;53.222;6.354;2022-08-23T04:47:38;24.45;;;16.15;;
38113;SDS011;23926;53.222;6.354;2022-08-23T04:50:05;18.38;;;13.02;;
38113;SDS011;23926;53.222;6.354;2022-08-23T04:52:32;19.92;;;14.93;;
38113;SDS011;23926;53.222;6.354;2022-08-23T04:54:57;21.35;;;15.85;;
38113;SDS011;23926;53.222;6.354;2022-08-23T04:57:23;23.38;;;17.35;;
38113;SDS011;23926;53.222;6.354;2022-08-23T04:59:49;24.30;;;16.02;;
38113;SDS011;23926;53.222;6.354;2022-08-23T05:02:14;15.32;;;12.10;;
38113;SDS011;23926;53.222;6.354;2022-08-23T05:04:40;13.93;;;10.55;;
38113;SDS011;23926;53.222;6.354;2022-08-23T05:07:06;16.17;;;11.57;;
38113;SDS011;23926;53.222;6.354;2022-08-23T05:09:31;22.00;;;14.30;;
38113;SDS011;23926;53.222;6.354;2022-08-23T05:11:57;17.25;;;14.52;;
38113;SDS011;23926;53.222;6.354;2022-08-23T05:14:22;21.40;;;15.27;;
38113;SDS011;23926;53.222;6.354;2022-08-23T05:16:47;21.75;;;16.10;;
38113;SDS011;23926;53.222;6.354;2022-08-23T05:19:13;17.77;;;15.27;;
38113;SDS011;23926;53.222;6.354;2022-08-23T05:21:39;18.20;;;14.85;;
38113;SDS011;23926;53.222;6.354;2022-08-23T05:24:04;20.98;;;14.52;;
38113;SDS011;23926;53.222;6.354;2022-08-23T05:26:29;20.73;;;14.55;;
38113;SDS011;23926;53.222;6.354;2022-08-23T05:28:55;15.65;;;11.20;;
38113;SDS011;23926;53.222;6.354;2022-08-23T05:31:21;17.58;;;10.93;;
38113;SDS011;23926;53.222;6.354;2022-08-23T05:33:49;18.30;;;13.18;;
38113;SDS011;23926;53.222;6.354;2022-08-23T05:36:16;15.85;;;12.07;;
38113;SDS011;23926;53.222;6.354;2022-08-23T05:38:42;18.75;;;13.63;;
38113;SDS011;23926;53.222;6.354;2022-08-23T05:41:09;19.30;;;14.32;;
38113;SDS011;23926;53.222;6.354;2022-08-23T05:43:35;19.25;;;14.48;;
38113;SDS011;23926;53.222;6.354;2022-08-23T05:46:11;19.00;;;13.90;;
38113;SDS011;23926;53.222;6.354;2022-08-23T05:48:39;20.80;;;14.98;;
38113;SDS011;23926;53.222;6.354;2022-08-23T05:51:17;16.08;;;12.13;;
38113;SDS011;23926;53.222;6.354;2022-08-23T05:54:02;10.98;;;9.23;;
38113;SDS011;23926;53.222;6.354;2022-08-23T05:56:31;11.70;;;8.05;;
38113;SDS011;23926;53.222;6.354;2022-08-23T05:59:02;10.50;;;8.82;;
38113;SDS011;23926;53.222;6.354;2022-08-23T06:01:30;16.35;;;12.65;;
38113;SDS011;23926;53.222;6.354;2022-08-23T06:04:03;13.40;;;10.20;;
38113;SDS011;23926;53.222;6.354;2022-08-23T06:06:31;12.75;;;9.48;;
38113;SDS011;23926;53.222;6.354;2022-08-23T06:08:58;14.43;;;10.80;;
38113;SDS011;23926;53.222;6.354;2022-08-23T06:11:25;13.50;;;11.60;;
38113;SDS011;23926;53.222;6.354;2022-08-23T06:13:54;14.05;;;10.82;;
38113;SDS011;23926;53.222;6.354;2022-08-23T06:16:25;11.90;;;8.73;;
38113;SDS011;23926;53.222;6.354;2022-08-23T06:18:53;12.68;;;9.70;;
38113;SDS011;23926;53.222;6.354;2022-08-23T06:21:21;11.15;;;9.48;;
38113;SDS011;23926;53.222;6.354;2022-08-23T06:23:48;9.82;;;7.82;;
38113;SDS011;23926;53.222;6.354;2022-08-23T06:26:18;11.93;;;9.27;;
38113;SDS011;23926;53.222;6.354;2022-08-23T06:28:50;11.60;;;8.37;;
38113;SDS011;23926;53.222;6.354;2022-08-23T06:31:20;20.85;;;16.08;;
38113;SDS011;23926;53.222;6.354;2022-08-23T06:34:05;22.23;;;16.55;;
38113;SDS011;23926;53.222;6.354;2022-08-23T06:36:31;11.63;;;10.40;;
38113;SDS011;23926;53.222;6.354;2022-08-23T06:38:57;16.55;;;14.02;;
38113;SDS011;23926;53.222;6.354;2022-08-23T06:41:23;16.02;;;14.25;;
38113;SDS011;23926;53.222;6.354;2022-08-23T06:43:49;20.55;;;15.95;;
38113;SDS011;23926;53.222;6.354;2022-08-23T06:46:25;15.98;;;13.63;;
38113;SDS011;23926;53.222;6.354;2022-08-23T06:48:52;19.48;;;13.82;;
38113;SDS011;23926;53.222;6.354;2022-08-23T06:53:51;16.45;;;14.27;;
38113;SDS011;23926;53.222;6.354;2022-08-23T06:56:19;14.23;;;12.75;;
38113;SDS011;23926;53.222;6.354;2022-08-23T06:58:45;20.05;;;15.30;;
38113;SDS011;23926;53.222;6.354;2022-08-23T07:01:21;15.45;;;12.98;;
38113;SDS011;23926;53.222;6.354;2022-08-23T07:03:59;19.17;;;16.90;;
38113;SDS011;23926;53.222;6.354;2022-08-23T07:06:26;16.23;;;13.18;;
38113;SDS011;23926;53.222;6.354;2022-08-23T07:08:53;15.07;;;12.35;;
38113;SDS011;23926;53.222;6.354;2022-08-23T07:11:19;15.27;;;13.52;;
38113;SDS011;23926;53.222;6.354;2022-08-23T07:13:46;15.45;;;10.93;;
38113;SDS011;23926;53.222;6.354;2022-08-23T07:16:12;16.83;;;11.23;;
38113;SDS011;23926;53.222;6.354;2022-08-23T07:18:39;16.33;;;13.63;;
38113;SDS011;23926;53.222;6.354;2022-08-23T07:21:05;16.13;;;13.73;;
38113;SDS011;23926;53.222;6.354;2022-08-23T07:23:32;12.40;;;10.90;;
38113;SDS011;23926;53.222;6.354;2022-08-23T07:26:02;14.35;;;12.45;;
38113;SDS011;23926;53.222;6.354;2022-08-23T07:28:32;12.20;;;10.40;;
38113;SDS011;23926;53.222;6.354;2022-08-23T07:31:14;13.85;;;10.50;;
38113;SDS011;23926;53.222;6.354;2022-08-23T07:33:42;11.68;;;9.57;;
38113;SDS011;23926;53.222;6.354;2022-08-23T07:36:09;10.93;;;9.05;;
38113;SDS011;23926;53.222;6.354;2022-08-23T07:38:37;12.82;;;10.13;;
38113;SDS011;23926;53.222;6.354;2022-08-23T07:41:02;11.82;;;9.68;;
38113;SDS011;23926;53.222;6.354;2022-08-23T07:43:30;12.48;;;10.13;;
38113;SDS011;23926;53.222;6.354;2022-08-23T07:45:56;11.93;;;10.15;;
38113;SDS011;23926;53.222;6.354;2022-08-23T07:48:22;13.02;;;9.95;;
38113;SDS011;23926;53.222;6.354;2022-08-23T07:50:51;14.95;;;10.20;;
38113;SDS011;23926;53.222;6.354;2022-08-23T07:53:18;12.15;;;10.07;;
38113;SDS011;23926;53.222;6.354;2022-08-23T07:55:46;8.80;;;7.90;;
38113;SDS011;23926;53.222;6.354;2022-08-23T07:58:12;11.02;;;8.82;;
38113;SDS011;23926;53.222;6.354;2022-08-23T08:00:37;10.93;;;9.18;;
38113;SDS011;23926;53.222;6.354;2022-08-23T08:03:02;11.32;;;8.75;;
38113;SDS011;23926;53.222;6.354;2022-08-23T08:05:30;9.40;;;7.32;;
38113;SDS011;23926;53.222;6.354;2022-08-23T08:07:56;11.23;;;8.15;;
38113;SDS011;23926;53.222;6.354;2022-08-23T08:10:22;10.52;;;7.22;;
38113;SDS011;23926;53.222;6.354;2022-08-23T08:12:47;9.68;;;6.75;;
38113;SDS011;23926;53.222;6.354;2022-08-23T08:15:13;10.48;;;7.00;;
38113;SDS011;23926;53.222;6.354;2022-08-23T08:17:39;10.13;;;6.30;;
38113;SDS011;23926;53.222;6.354;2022-08-23T08:20:05;8.43;;;6.90;;
38113;SDS011;23926;53.222;6.354;2022-08-23T08:22:32;9.90;;;7.25;;
38113;SDS011;23926;53.222;6.354;2022-08-23T08:24:57;10.88;;;7.30;;
38113;SDS011;23926;53.222;6.354;2022-08-23T08:27:22;7.15;;;6.45;;
38113;SDS011;23926;53.222;6.354;2022-08-23T08:29:48;7.93;;;6.97;;
38113;SDS011;23926;53.222;6.354;2022-08-23T08:32:13;11.02;;;7.15;;
38113;SDS011;23926;53.222;6.354;2022-08-23T08:34:39;7.57;;;5.82;;
38113;SDS011;23926;53.222;6.354;2022-08-23T08:37:05;11.25;;;6.82;;
38113;SDS011;23926;53.222;6.354;2022-08-23T08:39:31;5.88;;;5.03;;
38113;SDS011;23926;53.222;6.354;2022-08-23T08:52:44;6.72;;;4.38;;
38113;SDS011;23926;53.222;6.354;2022-08-23T08:55:16;5.63;;;4.32;;
38113;SDS011;23926;53.222;6.354;2022-08-23T08:57:46;5.20;;;4.47;;
38113;SDS011;23926;53.222;6.354;2022-08-23T09:00:20;7.00;;;3.95;;
38113;SDS011;23926;53.222;6.354;2022-08-23T09:02:48;7.32;;;4.57;;
38113;SDS011;23926;53.222;6.354;2022-08-23T09:07:53;5.45;;;3.70;;
38113;SDS011;23926;53.222;6.354;2022-08-23T09:20:57;4.07;;;3.60;;
38113;SDS011;23926;53.222;6.354;2022-08-23T09:23:26;8.95;;;4.68;;
38113;SDS011;23926;53.222;6.354;2022-08-23T09:26:00;6.30;;;3.80;;
38113;SDS011;23926;53.222;6.354;2022-08-23T09:28:30;5.32;;;3.60;;
38113;SDS011;23926;53.222;6.354;2022-08-23T09:30:58;4.75;;;3.58;;
38113;SDS011;23926;53.222;6.354;2022-08-23T09:33:25;4.63;;;3.40;;
38113;SDS011;23926;53.222;6.354;2022-08-23T09:36:15;6.45;;;4.15;;
38113;SDS011;23926;53.222;6.354;2022-08-23T09:38:52;5.45;;;3.70;;
38113;SDS011;23926;53.222;6.354;2022-08-23T09:41:34;3.97;;;3.40;;
38113;SDS011;23926;53.222;6.354;2022-08-23T09:46:33;5.03;;;3.75;;
38113;SDS011;23926;53.222;6.354;2022-08-23T09:49:21;7.65;;;3.60;;
38113;SDS011;23926;53.222;6.354;2022-08-23T09:51:47;7.85;;;3.95;;
38113;SDS011;23926;53.222;6.354;2022-08-23T09:56:52;9.10;;;3.67;;
38113;SDS011;23926;53.222;6.354;2022-08-23T09:59:26;5.38;;;3.70;;
38113;SDS011;23926;53.222;6.354;2022-08-23T10:01:59;6.95;;;3.85;;
38113;SDS011;23926;53.222;6.354;2022-08-23T10:09:52;6.13;;;3.55;;
38113;SDS011;23926;53.222;6.354;2022-08-23T10:12:19;5.55;;;3.65;;
38113;SDS011;23926;53.222;6.354;2022-08-23T10:14:44;6.35;;;3.88;;
38113;SDS011;23926;53.222;6.354;2022-08-23T10:20:26;5.25;;;3.33;;
38113;SDS011;23926;53.222;6.354;2022-08-23T10:23:02;5.82;;;3.58;;
38113;SDS011;23926;53.222;6.354;2022-08-23T10:34:00;10.13;;;4.13;;
38113;SDS011;23926;53.222;6.354;2022-08-23T10:36:59;4.57;;;2.90;;
38113;SDS011;23926;53.222;6.354;2022-08-23T10:39:34;3.90;;;3.00;;
38113;SDS011;23926;53.222;6.354;2022-08-23T10:44:53;4.03;;;3.20;;
38113;SDS011;23926;53.222;6.354;2022-08-23T10:49:57;7.10;;;3.80;;
38113;SDS011;23926;53.222;6.354;2022-08-23T10:52:38;4.65;;;3.65;;
38113;SDS011;23926;53.222;6.354;2022-08-23T10:55:10;4.93;;;3.50;;
38113;SDS011;23926;53.222;6.354;2022-08-23T10:57:58;8.50;;;3.50;;
38113;SDS011;23926;53.222;6.354;2022-08-23T11:00:25;5.20;;;3.30;;
38113;SDS011;23926;53.222;6.354;2022-08-23T11:05:27;5.53;;;3.00;;
38113;SDS011;23926;53.222;6.354;2022-08-23T11:08:00;5.10;;;3.58;;
38113;SDS011;23926;53.222;6.354;2022-08-23T11:13:00;5.43;;;2.88;;
38113;SDS011;23926;53.222;6.354;2022-08-23T11:15:42;6.20;;;3.30;;
38113;SDS011;23926;53.222;6.354;2022-08-23T11:26:10;6.63;;;3.78;;
38113;SDS011;23926;53.222;6.354;2022-08-23T11:32:19;4.07;;;3.10;;
38113;SDS011;23926;53.222;6.354;2022-08-23T11:34:59;5.47;;;3.45;;
38113;SDS011;23926;53.222;6.354;2022-08-23T11:42:21;3.28;;;2.60;;
38113;SDS011;23926;53.222;6.354;2022-08-23T11:44:48;3.88;;;2.92;;
38113;SDS011;23926;53.222;6.354;2022-08-23T11:47:14;5.03;;;2.60;;
38113;SDS011;23926;53.222;6.354;2022-08-23T12:21:30;5.63;;;3.13;;
38113;SDS011;23926;53.222;6.354;2022-08-23T12:23:58;4.20;;;3.10;;
38113;SDS011;23926;53.222;6.354;2022-08-23T12:35:07;5.72;;;3.22;;
38113;SDS011;23926;53.222;6.354;2022-08-23T12:40:21;7.60;;;3.08;;
38113;SDS011;23926;53.222;6.354;2022-08-23T12:43:00;5.47;;;3.45;;
38113;SDS011;23926;53.222;6.354;2022-08-23T12:45:34;6.60;;;3.55;;
38113;SDS011;23926;53.222;6.354;2022-08-23T12:48:10;6.75;;;3.33;;
38113;SDS011;23926;53.222;6.354;2022-08-23T12:50:39;5.22;;;3.30;;
38113;SDS011;23926;53.222;6.354;2022-08-23T12:53:11;5.38;;;3.00;;
38113;SDS011;23926;53.222;6.354;2022-08-23T12:55:40;6.47;;;3.10;;
38113;SDS011;23926;53.222;6.354;2022-08-23T12:58:08;3.78;;;2.70;;
38113;SDS011;23926;53.222;6.354;2022-08-23T13:00:36;7.15;;;2.95;;
38113;SDS011;23926;53.222;6.354;2022-08-23T13:03:05;6.38;;;3.38;;
38113;SDS011;23926;53.222;6.354;2022-08-23T13:05:52;5.25;;;3.10;;
38113;SDS011;23926;53.222;6.354;2022-08-23T13:08:55;5.90;;;3.35;;
38113;SDS011;23926;53.222;6.354;2022-08-23T13:11:19;4.35;;;2.95;;
38113;SDS011;23926;53.222;6.354;2022-08-23T13:13:46;4.60;;;2.90;;
38113;SDS011;23926;53.222;6.354;2022-08-23T13:18:50;5.32;;;3.30;;
38113;SDS011;23926;53.222;6.354;2022-08-23T13:23:57;5.55;;;3.00;;
38113;SDS011;23926;53.222;6.354;2022-08-23T13:26:43;6.00;;;3.35;;
38113;SDS011;23926;53.222;6.354;2022-08-23T13:29:10;6.95;;;3.47;;
38113;SDS011;23926;53.222;6.354;2022-08-23T13:37:03;3.40;;;2.75;;
38113;SDS011;23926;53.222;6.354;2022-08-23T13:39:33;3.30;;;2.60;;
38113;SDS011;23926;53.222;6.354;2022-08-23T13:41:59;7.10;;;3.10;;
38113;SDS011;23926;53.222;6.354;2022-08-23T13:44:24;3.65;;;3.08;;
38113;SDS011;23926;53.222;6.354;2022-08-23T13:46:50;6.43;;;3.38;;
38113;SDS011;23926;53.222;6.354;2022-08-23T13:49:23;6.22;;;3.53;;
38113;SDS011;23926;53.222;6.354;2022-08-23T13:54:23;4.82;;;3.05;;
38113;SDS011;23926;53.222;6.354;2022-08-23T13:56:52;5.03;;;3.47;;
38113;SDS011;23926;53.222;6.354;2022-08-23T14:01:52;6.85;;;3.15;;
38113;SDS011;23926;53.222;6.354;2022-08-23T14:04:18;4.78;;;3.42;;
38113;SDS011;23926;53.222;6.354;2022-08-23T14:06:43;7.32;;;3.83;;
38113;SDS011;23926;53.222;6.354;2022-08-23T14:09:10;5.18;;;3.13;;
38113;SDS011;23926;53.222;6.354;2022-08-23T14:11:36;6.40;;;3.03;;
38113;SDS011;23926;53.222;6.354;2022-08-23T14:14:02;6.53;;;3.10;;
38113;SDS011;23926;53.222;6.354;2022-08-23T14:16:30;8.75;;;3.42;;
38113;SDS011;23926;53.222;6.354;2022-08-23T14:18:58;4.13;;;3.05;;
38113;SDS011;23926;53.222;6.354;2022-08-23T14:21:24;3.88;;;3.17;;
38113;SDS011;23926;53.222;6.354;2022-08-23T14:23:50;5.80;;;3.45;;
38113;SDS011;23926;53.222;6.354;2022-08-23T14:26:16;6.30;;;3.33;;
38113;SDS011;23926;53.222;6.354;2022-08-23T14:28:43;6.32;;;3.28;;
38113;SDS011;23926;53.222;6.354;2022-08-23T14:31:10;6.10;;;3.15;;
38113;SDS011;23926;53.222;6.354;2022-08-23T14:33:36;7.25;;;3.30;;
38113;SDS011;23926;53.222;6.354;2022-08-23T14:36:02;6.15;;;3.58;;
38113;SDS011;23926;53.222;6.354;2022-08-23T14:38:28;7.57;;;3.50;;
38113;SDS011;23926;53.222;6.354;2022-08-23T14:40:55;7.28;;;4.15;;
38113;SDS011;23926;53.222;6.354;2022-08-23T14:43:23;5.47;;;3.28;;
38113;SDS011;23926;53.222;6.354;2022-08-23T14:45:49;6.43;;;3.20;;
38113;SDS011;23926;53.222;6.354;2022-08-23T14:48:15;5.90;;;3.33;;
38113;SDS011;23926;53.222;6.354;2022-08-23T14:50:42;5.57;;;3.30;;
38113;SDS011;23926;53.222;6.354;2022-08-23T14:53:08;9.30;;;3.65;;
38113;SDS011;23926;53.222;6.354;2022-08-23T14:55:34;6.15;;;3.95;;
38113;SDS011;23926;53.222;6.354;2022-08-23T14:58:00;4.90;;;4.07;;
38113;SDS011;23926;53.222;6.354;2022-08-23T15:00:26;8.25;;;5.60;;
38113;SDS011;23926;53.222;6.354;2022-08-23T15:02:51;9.75;;;5.88;;
38113;SDS011;23926;53.222;6.354;2022-08-23T15:05:17;6.95;;;5.30;;
38113;SDS011;23926;53.222;6.354;2022-08-23T15:07:46;7.45;;;5.35;;
38113;SDS011;23926;53.222;6.354;2022-08-23T15:10:11;8.35;;;5.75;;
38113;SDS011;23926;53.222;6.354;2022-08-23T15:12:37;7.30;;;5.15;;
38113;SDS011;23926;53.222;6.354;2022-08-23T15:15:04;8.32;;;5.35;;
38113;SDS011;23926;53.222;6.354;2022-08-23T15:17:57;8.07;;;6.32;;
38113;SDS011;23926;53.222;6.354;2022-08-23T15:20:24;9.93;;;7.38;;
38113;SDS011;23926;53.222;6.354;2022-08-23T15:22:52;11.88;;;7.68;;
38113;SDS011;23926;53.222;6.354;2022-08-23T15:25:17;11.93;;;7.60;;
38113;SDS011;23926;53.222;6.354;2022-08-23T15:27:43;8.50;;;7.60;;
38113;SDS011;23926;53.222;6.354;2022-08-23T15:30:11;10.13;;;7.38;;
38113;SDS011;23926;53.222;6.354;2022-08-23T15:32:38;11.00;;;7.50;;
38113;SDS011;23926;53.222;6.354;2022-08-23T15:35:03;9.07;;;6.25;;
38113;SDS011;23926;53.222;6.354;2022-08-23T15:37:29;9.43;;;6.80;;
38113;SDS011;23926;53.222;6.354;2022-08-23T15:39:55;12.48;;;8.38;;
38113;SDS011;23926;53.222;6.354;2022-08-23T15:42:21;17.38;;;8.95;;
38113;SDS011;23926;53.222;6.354;2022-08-23T15:44:46;11.02;;;8.20;;
38113;SDS011;23926;53.222;6.354;2022-08-23T15:47:15;11.20;;;8.23;;
38113;SDS011;23926;53.222;6.354;2022-08-23T15:49:45;10.60;;;7.63;;
38113;SDS011;23926;53.222;6.354;2022-08-23T15:52:11;10.10;;;7.22;;
38113;SDS011;23926;53.222;6.354;2022-08-23T15:54:36;11.55;;;7.63;;
38113;SDS011;23926;53.222;6.354;2022-08-23T15:57:02;9.82;;;6.53;;
38113;SDS011;23926;53.222;6.354;2022-08-23T15:59:28;12.85;;;6.78;;
38113;SDS011;23926;53.222;6.354;2022-08-23T16:01:56;9.20;;;6.93;;
38113;SDS011;23926;53.222;6.354;2022-08-23T16:04:21;13.00;;;6.40;;
38113;SDS011;23926;53.222;6.354;2022-08-23T16:06:47;8.50;;;6.40;;
38113;SDS011;23926;53.222;6.354;2022-08-23T16:09:19;13.23;;;9.57;;
38113;SDS011;23926;53.222;6.354;2022-08-23T16:11:47;12.77;;;10.52;;
38113;SDS011;23926;53.222;6.354;2022-08-23T16:14:12;11.98;;;10.57;;
38113;SDS011;23926;53.222;6.354;2022-08-23T16:16:38;13.23;;;9.95;;
38113;SDS011;23926;53.222;6.354;2022-08-23T16:19:05;12.48;;;10.20;;
38113;SDS011;23926;53.222;6.354;2022-08-23T16:21:31;12.95;;;10.15;;
38113;SDS011;23926;53.222;6.354;2022-08-23T16:23:58;16.30;;;11.07;;
38113;SDS011;23926;53.222;6.354;2022-08-23T16:26:25;15.50;;;10.32;;
38113;SDS011;23926;53.222;6.354;2022-08-23T16:28:53;13.57;;;12.02;;
38113;SDS011;23926;53.222;6.354;2022-08-23T16:31:20;15.45;;;13.55;;
38113;SDS011;23926;53.222;6.354;2022-08-23T16:33:45;16.60;;;13.80;;
38113;SDS011;23926;53.222;6.354;2022-08-23T16:36:14;27.60;;;17.08;;
38113;SDS011;23926;53.222;6.354;2022-08-23T16:38:42;18.98;;;15.45;;
38113;SDS011;23926;53.222;6.354;2022-08-23T16:41:08;20.38;;;16.77;;
38113;SDS011;23926;53.222;6.354;2022-08-23T16:43:33;20.65;;;18.17;;
38113;SDS011;23926;53.222;6.354;2022-08-23T16:45:59;22.67;;;18.73;;
38113;SDS011;23926;53.222;6.354;2022-08-23T16:48:24;31.42;;;20.15;;
38113;SDS011;23926;53.222;6.354;2022-08-23T16:50:50;25.33;;;19.73;;
38113;SDS011;23926;53.222;6.354;2022-08-23T16:53:15;26.70;;;20.08;;
38113;SDS011;23926;53.222;6.354;2022-08-23T16:55:41;19.80;;;17.65;;
38113;SDS011;23926;53.222;6.354;2022-08-23T16:58:07;20.77;;;17.60;;
38113;SDS011;23926;53.222;6.354;2022-08-23T17:00:33;20.88;;;18.40;;